createdAt,value
2023-01-25T00:00:39.807Z,13.33
2023-01-25T00:05:42.930Z,14.77
2023-01-25T00:10:52.547Z,13.60
2023-01-25T00:15:55.639Z,14.17
2023-01-25T00:20:58.723Z,14.60
2023-01-25T00:26:03.166Z,14.27
2023-01-25T00:31:08.268Z,15.17
2023-01-25T00:36:41.044Z,14.87
2023-01-25T00:41:45.915Z,13.63
2023-01-25T00:46:49.428Z,14.80
2023-01-25T00:51:53.449Z,15.13
2023-01-25T00:56:57.958Z,14.37
2023-01-25T01:02:01.422Z,15.90
2023-01-25T01:07:04.610Z,13.70
2023-01-25T01:12:09.299Z,15.03
2023-01-25T01:17:12.387Z,14.93
2023-01-25T01:22:15.604Z,14.87
2023-01-25T01:27:20.097Z,12.93
2023-01-25T01:32:23.388Z,13.40
2023-01-25T01:37:26.543Z,13.50
2023-01-25T01:42:31.398Z,12.00
2023-01-25T01:47:45.915Z,12.40
2023-01-25T01:52:49.801Z,12.07
2023-01-25T01:57:58.485Z,12.53
2023-01-25T02:03:02.580Z,13.27
2023-01-25T02:08:08.963Z,12.67
2023-01-25T02:13:13.763Z,14.43
2023-01-25T02:18:18.510Z,13.43
2023-01-25T02:23:30.364Z,13.73
2023-01-25T02:28:40.723Z,14.23
2023-01-25T02:33:44.105Z,12.53
2023-01-25T02:38:51.147Z,13.67
2023-01-25T02:43:55.960Z,14.13
2023-01-25T02:49:00.131Z,12.43
2023-01-25T02:54:05.422Z,12.30
2023-01-25T02:59:10.584Z,13.13
2023-01-25T03:04:13.793Z,11.83
2023-01-25T03:09:16.889Z,11.70
2023-01-25T03:14:21.380Z,12.60
2023-01-25T03:19:24.477Z,11.80
2023-01-25T03:24:27.670Z,12.07
2023-01-25T03:29:33.540Z,12.43
2023-01-25T03:34:36.731Z,11.43
2023-01-25T03:39:39.801Z,11.77
2023-01-25T03:44:44.270Z,11.07
2023-01-25T03:49:47.358Z,10.93
2023-01-25T03:54:50.439Z,12.00
2023-01-25T03:59:54.898Z,11.30
2023-01-25T04:04:57.981Z,12.33
2023-01-25T04:10:01.108Z,12.80
2023-01-25T04:15:06.072Z,11.93
2023-01-25T04:20:10.554Z,12.53
2023-01-25T04:25:13.648Z,12.33
2023-01-25T04:30:18.472Z,11.67
2023-01-25T04:35:22.117Z,11.70
2023-01-25T04:40:25.485Z,12.63
2023-01-25T04:45:30.054Z,12.13
2023-01-25T04:50:33.435Z,12.93
2023-01-25T04:55:36.658Z,12.53
2023-01-25T05:00:41.191Z,12.53
2023-01-25T05:05:47.946Z,11.10
2023-01-25T05:10:51.022Z,11.00
2023-01-25T05:15:57.476Z,11.33
2023-01-25T05:21:00.593Z,11.20
2023-01-25T05:26:20.914Z,11.30
2023-01-25T05:31:25.478Z,10.07
2023-01-25T05:36:28.641Z,11.23
2023-01-25T05:41:32.241Z,12.73
2023-01-25T05:46:36.740Z,12.27
2023-01-25T05:51:40.076Z,12.73
2023-01-25T05:56:44.018Z,11.97
2023-01-25T06:01:48.551Z,12.07
2023-01-25T06:06:51.658Z,12.97
2023-01-25T06:11:54.779Z,13.40
2023-01-25T06:16:59.285Z,13.60
2023-01-25T06:22:02.366Z,13.00
2023-01-25T06:27:05.545Z,12.90
2023-01-25T06:32:10.199Z,12.97
2023-01-25T06:37:13.501Z,12.87
2023-01-25T06:42:16.614Z,12.93
2023-01-25T06:47:21.280Z,12.80
2023-01-25T06:52:24.716Z,12.77
2023-01-25T06:57:29.401Z,13.17
2023-01-25T07:02:34.094Z,13.13
2023-01-25T07:07:37.297Z,12.77
2023-01-25T07:12:40.503Z,13.43
2023-01-25T07:17:45.013Z,12.07
2023-01-25T07:22:48.117Z,13.73
2023-01-25T07:27:51.225Z,14.80
2023-01-25T07:32:55.690Z,13.73
2023-01-25T07:37:58.876Z,13.23
2023-01-25T07:43:02.003Z,13.63
2023-01-25T07:48:09.954Z,12.33
2023-01-25T07:53:13.421Z,12.67
2023-01-25T07:58:17.411Z,12.43
2023-01-25T08:03:22.219Z,12.40
2023-01-25T08:08:25.433Z,11.90
2023-01-25T08:13:28.648Z,11.83
2023-01-25T08:18:35.833Z,11.93
2023-01-25T08:23:39.167Z,12.93
2023-01-25T08:28:42.534Z,11.87
2023-01-25T08:33:47.417Z,12.27
2023-01-25T08:38:55.432Z,12.07
2023-01-25T08:43:59.393Z,11.57
2023-01-25T08:49:04.520Z,11.67
2023-01-25T08:54:08.879Z,11.33
2023-01-25T08:59:13.966Z,10.83
2023-01-25T09:04:18.775Z,11.27
2023-01-25T09:09:22.524Z,12.80
2023-01-25T09:14:25.861Z,13.37
2023-01-25T09:19:30.358Z,13.13
2023-01-25T09:24:36.971Z,13.70
2023-01-25T09:29:43.776Z,13.87
2023-01-25T09:34:50.928Z,13.83
2023-01-25T09:39:54.219Z,15.43
2023-01-25T09:45:09.348Z,14.97
2023-01-25T09:50:34.103Z,14.47
2023-01-25T09:55:38.014Z,14.23
2023-01-25T10:00:48.029Z,14.23
2023-01-25T10:05:55.410Z,14.43
2023-01-25T10:11:05.805Z,14.33
2023-01-25T10:16:24.578Z,14.43
2023-01-25T10:21:35.861Z,14.23
2023-01-25T10:26:43.140Z,12.67
2023-01-25T10:31:50.484Z,12.37
2023-01-25T10:36:56.984Z,12.07
2023-01-25T10:42:04.307Z,13.33
2023-01-25T10:47:16.243Z,13.53
2023-01-25T10:52:23.284Z,12.77
2023-01-25T10:57:26.803Z,13.27
2023-01-25T11:02:41.976Z,13.53
2023-01-25T11:07:47.452Z,13.27
2023-01-25T11:12:50.884Z,12.83
2023-01-25T11:18:07.123Z,12.73
2023-01-25T11:23:23.982Z,13.63
2023-01-25T11:28:27.140Z,13.00
2023-01-25T11:33:32.457Z,12.47
2023-01-25T11:38:38.558Z,14.40
2023-01-25T11:44:01.595Z,12.87
2023-01-25T11:49:15.232Z,15.43
2023-01-25T11:54:46.687Z,14.47
2023-01-25T12:00:05.521Z,15.73
2023-01-25T12:05:26.149Z,13.33
2023-01-25T12:10:40.777Z,14.63
2023-01-25T12:16:04.171Z,14.87
2023-01-25T12:21:22.965Z,13.27
2023-01-25T12:26:44.279Z,14.70
2023-01-25T12:31:53.272Z,14.23
2023-01-25T12:37:01.839Z,13.63
2023-01-25T12:42:13.991Z,12.80
2023-01-25T12:47:23.218Z,14.80
2023-01-25T12:52:31.722Z,14.47
2023-01-25T12:57:42.789Z,14.07
2023-01-25T13:03:09.436Z,14.77
2023-01-25T13:08:31.099Z,13.33
2023-01-25T13:13:36.454Z,12.97
2023-01-25T13:18:42.760Z,13.10
2023-01-25T13:23:47.971Z,15.47
2023-01-25T13:28:54.335Z,14.50
2023-01-25T13:34:00.275Z,13.90
2023-01-25T13:39:04.586Z,17.13
2023-01-25T13:44:29.261Z,15.23
2023-01-25T13:49:37.794Z,14.93
2023-01-25T13:54:44.904Z,14.17
2023-01-25T13:59:52.416Z,13.90
2023-01-25T14:04:59.315Z,14.80
2023-01-25T14:10:05.458Z,12.30
2023-01-25T14:15:23.796Z,13.10
2023-01-25T14:20:27.259Z,13.67
2023-01-25T14:25:30.755Z,14.23
2023-01-25T14:30:36.636Z,12.70
2023-01-25T14:35:53.831Z,14.50
2023-01-25T14:41:02.185Z,14.60
2023-01-25T14:46:25.627Z,13.93
2023-01-25T14:51:31.033Z,13.40
2023-01-25T14:56:41.386Z,13.83
2023-01-25T15:01:45.951Z,13.93
2023-01-25T15:06:50.736Z,15.27
2023-01-25T15:12:00.563Z,12.67
2023-01-25T15:17:05.026Z,14.90
2023-01-25T15:22:10.015Z,14.27
2023-01-25T15:27:13.404Z,13.80
2023-01-25T15:32:21.791Z,12.67
2023-01-25T15:37:25.142Z,15.30
2023-01-25T15:42:28.981Z,14.50
2023-01-25T15:47:34.459Z,14.00
2023-01-25T15:52:37.609Z,13.97
2023-01-25T15:57:41.429Z,13.50
2023-01-25T16:02:45.964Z,13.27
2023-01-25T16:07:49.115Z,13.40
2023-01-25T16:12:52.826Z,14.23
2023-01-25T16:17:57.381Z,15.00
2023-01-25T16:23:01.341Z,13.03
2023-01-25T16:28:04.501Z,13.60
2023-01-25T16:33:09.069Z,13.23
2023-01-25T16:38:12.980Z,13.03
2023-01-25T16:43:16.288Z,14.43
2023-01-25T16:48:21.295Z,13.67
2023-01-25T16:53:24.369Z,13.40
2023-01-25T16:58:27.823Z,13.07
2023-01-25T17:03:32.254Z,10.23
2023-01-25T17:08:35.640Z,13.40
2023-01-25T17:13:38.869Z,14.03
2023-01-25T17:18:43.372Z,13.70
2023-01-25T17:23:46.540Z,12.53
2023-01-25T17:28:50.179Z,12.27
2023-01-25T17:33:55.308Z,11.73
2023-01-25T17:39:02.310Z,11.83
2023-01-25T17:44:05.406Z,13.47
2023-01-25T17:49:13.528Z,15.10
2023-01-25T17:54:16.773Z,15.20
2023-01-25T17:59:19.999Z,11.90
2023-01-25T18:04:25.469Z,12.90
2023-01-25T18:09:30.135Z,11.13
2023-01-25T18:14:33.266Z,12.93
2023-01-25T18:19:38.038Z,13.33
2023-01-25T18:24:42.667Z,12.73
2023-01-25T18:29:48.574Z,11.57
2023-01-25T18:34:53.028Z,12.00
2023-01-25T18:39:57.310Z,11.83
2023-01-25T18:45:00.376Z,11.63
2023-01-25T18:50:05.529Z,15.10
2023-01-25T18:55:09.262Z,13.60
2023-01-25T19:00:14.921Z,12.20
2023-01-25T19:05:20.937Z,12.00
2023-01-25T19:10:24.224Z,11.50
2023-01-25T19:15:27.384Z,13.03
2023-01-25T19:20:31.922Z,11.63
2023-01-25T19:25:35.025Z,10.53
2023-01-25T19:30:38.780Z,10.00
2023-01-25T19:35:43.417Z,11.87
2023-01-25T19:40:46.503Z,10.50
2023-01-25T19:45:50.254Z,11.47
2023-01-25T19:50:54.702Z,10.67
2023-01-25T19:56:02.838Z,9.73
2023-01-25T20:01:07.895Z,10.10
2023-01-25T20:06:15.947Z,9.03
2023-01-25T20:11:21.520Z,7.53
2023-01-25T20:16:25.743Z,13.57
2023-01-25T20:21:31.268Z,10.03
2023-01-25T20:26:37.400Z,9.43
2023-01-25T20:31:42.226Z,8.47
2023-01-25T20:36:47.439Z,8.73
2023-01-25T20:41:53.551Z,8.33
2023-01-25T20:46:56.959Z,9.50
2023-01-25T20:52:01.525Z,12.07
2023-01-25T20:57:04.818Z,9.50
2023-01-25T21:02:10.302Z,8.77
2023-01-25T21:07:15.237Z,8.83
2023-01-25T21:12:18.356Z,7.23
2023-01-25T21:17:21.452Z,8.77
2023-01-25T21:22:28.688Z,9.57
2023-01-25T21:27:32.082Z,8.47
2023-01-25T21:32:35.394Z,8.17
2023-01-25T21:37:40.170Z,7.30
2023-01-25T21:42:43.353Z,8.10
2023-01-25T21:47:46.611Z,7.20
2023-01-25T21:52:51.278Z,7.97
2023-01-25T21:57:54.573Z,8.40
2023-01-25T22:02:57.998Z,7.50
2023-01-25T22:08:02.560Z,7.70
2023-01-25T22:13:05.732Z,6.67
2023-01-25T22:18:09.147Z,7.53
2023-01-25T22:23:13.699Z,7.63
2023-01-25T22:28:20.674Z,8.07
2023-01-25T22:33:24.126Z,7.47
2023-01-25T22:38:28.758Z,6.70
2023-01-25T22:43:32.072Z,5.80
2023-01-25T22:48:35.813Z,7.23
2023-01-25T22:53:40.896Z,7.73
2023-01-25T22:58:45.929Z,7.63
2023-01-25T23:03:49.652Z,8.13
2023-01-25T23:08:55.887Z,7.73
2023-01-25T23:14:13.407Z,8.60
2023-01-25T23:19:16.915Z,8.00
2023-01-25T23:24:21.823Z,8.07
2023-01-25T23:29:25.037Z,7.97
2023-01-25T23:34:28.314Z,8.50
2023-01-25T23:39:32.808Z,8.60
2023-01-25T23:44:35.930Z,7.40
2023-01-25T23:49:39.096Z,8.10
2023-01-25T23:54:43.710Z,8.23
2023-01-25T23:59:46.789Z,15.00
